sensor_id;sensor_type;location;lat;lon;timestamp;temperature;humidity
15872;DHT22;8035;51.962;7.162;2023-07-31T00:01:19;14.80;99.90
15872;DHT22;8035;51.962;7.162;2023-07-31T00:03:46;14.80;99.90
15872;DHT22;8035;51.962;7.162;2023-07-31T00:06:12;14.80;99.90
15872;DHT22;8035;51.962;7.162;2023-07-31T00:08:37;14.80;99.90
15872;DHT22;8035;51.962;7.162;2023-07-31T00:11:03;14.80;99.90
15872;DHT22;8035;51.962;7.162;2023-07-31T00:13:28;14.80;99.90
15872;DHT22;8035;51.962;7.162;2023-07-31T00:15:54;14.80;99.90
15872;DHT22;8035;51.962;7.162;2023-07-31T00:18:20;14.80;99.90
15872;DHT22;8035;51.962;7.162;2023-07-31T00:20:45;14.80;99.90
15872;DHT22;8035;51.962;7.162;2023-07-31T00:23:11;14.70;99.90
15872;DHT22;8035;51.962;7.162;2023-07-31T00:25:36;14.70;99.90
15872;DHT22;8035;51.962;7.162;2023-07-31T00:28:02;14.70;99.90
15872;DHT22;8035;51.962;7.162;2023-07-31T00:30:28;14.80;99.90
15872;DHT22;8035;51.962;7.162;2023-07-31T00:32:53;14.70;99.90
15872;DHT22;8035;51.962;7.162;2023-07-31T00:35:19;14.80;99.90
15872;DHT22;8035;51.962;7.162;2023-07-31T00:37:44;14.80;99.90
15872;DHT22;8035;51.962;7.162;2023-07-31T00:40:10;14.80;99.90
15872;DHT22;8035;51.962;7.162;2023-07-31T00:42:35;14.80;99.90
15872;DHT22;8035;51.962;7.162;2023-07-31T00:45:01;14.70;99.90
15872;DHT22;8035;51.962;7.162;2023-07-31T00:47:26;14.70;99.90
15872;DHT22;8035;51.962;7.162;2023-07-31T00:49:52;14.70;99.90
15872;DHT22;8035;51.962;7.162;2023-07-31T00:52:18;14.60;99.90
15872;DHT22;8035;51.962;7.162;2023-07-31T00:54:44;14.60;99.90
15872;DHT22;8035;51.962;7.162;2023-07-31T00:57:10;14.60;99.90
15872;DHT22;8035;51.962;7.162;2023-07-31T00:59:36;14.70;99.90
15872;DHT22;8035;51.962;7.162;2023-07-31T01:02:02;14.70;99.90
15872;DHT22;8035;51.962;7.162;2023-07-31T01:04:29;14.70;99.90
15872;DHT22;8035;51.962;7.162;2023-07-31T01:07:02;14.70;99.90
15872;DHT22;8035;51.962;7.162;2023-07-31T01:09:40;14.70;99.90
15872;DHT22;8035;51.962;7.162;2023-07-31T01:12:13;14.60;99.90
15872;DHT22;8035;51.962;7.162;2023-07-31T01:14:39;14.70;99.90
15872;DHT22;8035;51.962;7.162;2023-07-31T01:17:05;14.70;99.90
15872;DHT22;8035;51.962;7.162;2023-07-31T01:19:31;14.60;99.90
15872;DHT22;8035;51.962;7.162;2023-07-31T01:22:18;14.60;99.90
15872;DHT22;8035;51.962;7.162;2023-07-31T01:24:58;14.70;99.90
15872;DHT22;8035;51.962;7.162;2023-07-31T01:27:28;14.70;99.90
15872;DHT22;8035;51.962;7.162;2023-07-31T01:30:09;14.70;99.90
15872;DHT22;8035;51.962;7.162;2023-07-31T01:32:40;14.70;99.90
15872;DHT22;8035;51.962;7.162;2023-07-31T01:35:07;14.70;99.90
15872;DHT22;8035;51.962;7.162;2023-07-31T01:37:33;14.70;99.90
15872;DHT22;8035;51.962;7.162;2023-07-31T01:39:59;14.70;99.90
15872;DHT22;8035;51.962;7.162;2023-07-31T01:42:25;14.70;99.90
15872;DHT22;8035;51.962;7.162;2023-07-31T01:44:50;14.70;99.90
15872;DHT22;8035;51.962;7.162;2023-07-31T01:47:16;14.80;99.90
15872;DHT22;8035;51.962;7.162;2023-07-31T01:49:41;14.70;99.90
15872;DHT22;8035;51.962;7.162;2023-07-31T01:52:07;14.70;99.90
15872;DHT22;8035;51.962;7.162;2023-07-31T01:54:32;14.80;99.90
15872;DHT22;8035;51.962;7.162;2023-07-31T01:56:58;14.80;99.90
15872;DHT22;8035;51.962;7.162;2023-07-31T01:59:24;14.80;99.90
15872;DHT22;8035;51.962;7.162;2023-07-31T02:01:49;14.80;99.90
15872;DHT22;8035;51.962;7.162;2023-07-31T02:04:15;14.90;99.90
15872;DHT22;8035;51.962;7.162;2023-07-31T02:06:40;15.00;99.90
15872;DHT22;8035;51.962;7.162;2023-07-31T02:09:06;15.00;99.90
15872;DHT22;8035;51.962;7.162;2023-07-31T02:11:31;15.10;99.90
15872;DHT22;8035;51.962;7.162;2023-07-31T02:13:57;15.10;99.90
15872;DHT22;8035;51.962;7.162;2023-07-31T02:16:22;15.20;99.90
15872;DHT22;8035;51.962;7.162;2023-07-31T02:18:48;15.30;99.90
15872;DHT22;8035;51.962;7.162;2023-07-31T02:21:14;15.40;99.90
15872;DHT22;8035;51.962;7.162;2023-07-31T02:23:39;15.50;99.90
15872;DHT22;8035;51.962;7.162;2023-07-31T02:26:05;15.50;99.90
15872;DHT22;8035;51.962;7.162;2023-07-31T02:28:30;15.60;99.90
15872;DHT22;8035;51.962;7.162;2023-07-31T02:30:56;15.60;99.90
15872;DHT22;8035;51.962;7.162;2023-07-31T02:33:21;15.60;99.90
15872;DHT22;8035;51.962;7.162;2023-07-31T02:35:47;15.70;99.90
15872;DHT22;8035;51.962;7.162;2023-07-31T02:38:12;15.70;99.90
15872;DHT22;8035;51.962;7.162;2023-07-31T02:40:39;15.70;99.90
15872;DHT22;8035;51.962;7.162;2023-07-31T02:43:06;15.70;99.90
15872;DHT22;8035;51.962;7.162;2023-07-31T02:45:32;15.70;99.90
15872;DHT22;8035;51.962;7.162;2023-07-31T02:47:58;15.70;99.90
15872;DHT22;8035;51.962;7.162;2023-07-31T02:50:23;15.70;99.90
15872;DHT22;8035;51.962;7.162;2023-07-31T02:52:49;15.70;99.90
15872;DHT22;8035;51.962;7.162;2023-07-31T02:55:14;15.70;99.90
15872;DHT22;8035;51.962;7.162;2023-07-31T02:57:40;15.70;99.90
15872;DHT22;8035;51.962;7.162;2023-07-31T03:00:06;15.70;99.90
15872;DHT22;8035;51.962;7.162;2023-07-31T03:02:32;15.70;99.90
15872;DHT22;8035;51.962;7.162;2023-07-31T03:04:57;15.70;99.90
15872;DHT22;8035;51.962;7.162;2023-07-31T03:07:23;15.70;99.90
15872;DHT22;8035;51.962;7.162;2023-07-31T03:09:48;15.70;99.90
15872;DHT22;8035;51.962;7.162;2023-07-31T03:12:14;15.70;99.90
15872;DHT22;8035;51.962;7.162;2023-07-31T03:14:40;15.70;99.90
15872;DHT22;8035;51.962;7.162;2023-07-31T03:17:06;15.70;99.90
15872;DHT22;8035;51.962;7.162;2023-07-31T03:19:32;15.70;99.90
15872;DHT22;8035;51.962;7.162;2023-07-31T03:21:58;15.70;99.90
15872;DHT22;8035;51.962;7.162;2023-07-31T03:24:24;15.70;99.90
15872;DHT22;8035;51.962;7.162;2023-07-31T03:26:49;15.70;99.90
15872;DHT22;8035;51.962;7.162;2023-07-31T03:29:15;15.70;99.90
15872;DHT22;8035;51.962;7.162;2023-07-31T03:31:40;15.70;99.90
15872;DHT22;8035;51.962;7.162;2023-07-31T03:34:06;15.70;99.90
15872;DHT22;8035;51.962;7.162;2023-07-31T03:36:31;15.70;99.90
15872;DHT22;8035;51.962;7.162;2023-07-31T03:38:57;15.70;99.90
15872;DHT22;8035;51.962;7.162;2023-07-31T03:41:23;15.70;99.90
15872;DHT22;8035;51.962;7.162;2023-07-31T03:43:50;15.70;99.90
15872;DHT22;8035;51.962;7.162;2023-07-31T03:46:21;15.70;99.90
15872;DHT22;8035;51.962;7.162;2023-07-31T03:48:47;15.70;99.90
15872;DHT22;8035;51.962;7.162;2023-07-31T03:51:13;15.70;99.90
15872;DHT22;8035;51.962;7.162;2023-07-31T03:53:38;15.70;99.90
15872;DHT22;8035;51.962;7.162;2023-07-31T03:56:04;15.60;99.90
15872;DHT22;8035;51.962;7.162;2023-07-31T03:58:30;15.60;99.90
15872;DHT22;8035;51.962;7.162;2023-07-31T04:00:55;15.60;99.90
15872;DHT22;8035;51.962;7.162;2023-07-31T04:03:21;15.60;99.90
15872;DHT22;8035;51.962;7.162;2023-07-31T04:05:46;15.60;99.90
15872;DHT22;8035;51.962;7.162;2023-07-31T04:08:12;15.60;99.90
15872;DHT22;8035;51.962;7.162;2023-07-31T04:10:37;15.60;99.90
15872;DHT22;8035;51.962;7.162;2023-07-31T04:13:03;15.60;99.90
15872;DHT22;8035;51.962;7.162;2023-07-31T04:15:28;15.60;99.90
15872;DHT22;8035;51.962;7.162;2023-07-31T04:17:54;15.60;99.90
15872;DHT22;8035;51.962;7.162;2023-07-31T04:20:20;15.60;99.90
15872;DHT22;8035;51.962;7.162;2023-07-31T04:22:45;15.60;99.90
15872;DHT22;8035;51.962;7.162;2023-07-31T04:25:11;15.60;99.90
15872;DHT22;8035;51.962;7.162;2023-07-31T04:27:36;15.60;99.90
15872;DHT22;8035;51.962;7.162;2023-07-31T04:30:02;15.60;99.90
15872;DHT22;8035;51.962;7.162;2023-07-31T04:32:28;15.60;99.90
15872;DHT22;8035;51.962;7.162;2023-07-31T04:34:55;15.60;99.90
15872;DHT22;8035;51.962;7.162;2023-07-31T04:37:20;15.60;99.90
15872;DHT22;8035;51.962;7.162;2023-07-31T04:39:46;15.60;99.90
15872;DHT22;8035;51.962;7.162;2023-07-31T04:42:12;15.60;99.90
15872;DHT22;8035;51.962;7.162;2023-07-31T04:44:37;15.50;99.90
15872;DHT22;8035;51.962;7.162;2023-07-31T04:47:03;15.60;99.90
15872;DHT22;8035;51.962;7.162;2023-07-31T04:49:29;15.60;99.90
15872;DHT22;8035;51.962;7.162;2023-07-31T04:51:54;15.60;99.90
15872;DHT22;8035;51.962;7.162;2023-07-31T04:54:20;15.60;99.90
15872;DHT22;8035;51.962;7.162;2023-07-31T04:56:45;15.50;99.90
15872;DHT22;8035;51.962;7.162;2023-07-31T04:59:11;15.60;99.90
15872;DHT22;8035;51.962;7.162;2023-07-31T05:01:36;15.60;99.90
15872;DHT22;8035;51.962;7.162;2023-07-31T05:04:02;15.60;99.90
15872;DHT22;8035;51.962;7.162;2023-07-31T05:06:28;15.60;99.90
15872;DHT22;8035;51.962;7.162;2023-07-31T05:08:53;15.60;99.90
15872;DHT22;8035;51.962;7.162;2023-07-31T05:11:19;15.60;99.90
15872;DHT22;8035;51.962;7.162;2023-07-31T05:13:44;15.70;99.90
15872;DHT22;8035;51.962;7.162;2023-07-31T05:16:10;15.70;99.90
15872;DHT22;8035;51.962;7.162;2023-07-31T05:18:36;15.70;99.90
15872;DHT22;8035;51.962;7.162;2023-07-31T05:21:01;15.80;99.90
15872;DHT22;8035;51.962;7.162;2023-07-31T05:23:27;15.80;99.90
15872;DHT22;8035;51.962;7.162;2023-07-31T05:25:53;15.80;99.90
15872;DHT22;8035;51.962;7.162;2023-07-31T05:28:18;15.80;99.90
15872;DHT22;8035;51.962;7.162;2023-07-31T05:30:44;15.80;99.90
15872;DHT22;8035;51.962;7.162;2023-07-31T05:33:09;15.90;99.90
15872;DHT22;8035;51.962;7.162;2023-07-31T05:35:35;15.90;99.90
15872;DHT22;8035;51.962;7.162;2023-07-31T05:38:00;15.90;99.90
15872;DHT22;8035;51.962;7.162;2023-07-31T05:40:26;15.90;99.90
15872;DHT22;8035;51.962;7.162;2023-07-31T05:42:52;15.90;99.90
15872;DHT22;8035;51.962;7.162;2023-07-31T05:45:17;15.90;99.90
15872;DHT22;8035;51.962;7.162;2023-07-31T05:47:43;15.90;99.90
15872;DHT22;8035;51.962;7.162;2023-07-31T05:50:09;15.90;99.90
15872;DHT22;8035;51.962;7.162;2023-07-31T05:52:34;15.90;99.90
15872;DHT22;8035;51.962;7.162;2023-07-31T05:55:00;15.90;99.90
15872;DHT22;8035;51.962;7.162;2023-07-31T05:57:26;15.90;99.90
15872;DHT22;8035;51.962;7.162;2023-07-31T05:59:52;15.90;99.90
15872;DHT22;8035;51.962;7.162;2023-07-31T06:02:19;15.90;99.90
15872;DHT22;8035;51.962;7.162;2023-07-31T06:04:44;15.90;99.90
15872;DHT22;8035;51.962;7.162;2023-07-31T06:07:10;15.90;99.90
15872;DHT22;8035;51.962;7.162;2023-07-31T06:09:36;15.90;99.90
15872;DHT22;8035;51.962;7.162;2023-07-31T06:12:02;15.90;99.90
15872;DHT22;8035;51.962;7.162;2023-07-31T06:14:28;16.00;99.90
15872;DHT22;8035;51.962;7.162;2023-07-31T06:16:53;16.00;99.90
15872;DHT22;8035;51.962;7.162;2023-07-31T06:19:19;16.00;99.90
15872;DHT22;8035;51.962;7.162;2023-07-31T06:21:45;16.10;99.90
15872;DHT22;8035;51.962;7.162;2023-07-31T06:24:11;16.10;99.90
15872;DHT22;8035;51.962;7.162;2023-07-31T06:26:37;16.10;99.90
15872;DHT22;8035;51.962;7.162;2023-07-31T06:29:03;16.10;99.90
15872;DHT22;8035;51.962;7.162;2023-07-31T06:31:28;16.10;99.90
15872;DHT22;8035;51.962;7.162;2023-07-31T06:33:54;16.10;99.90
15872;DHT22;8035;51.962;7.162;2023-07-31T06:36:19;16.20;99.90
15872;DHT22;8035;51.962;7.162;2023-07-31T06:38:45;16.20;99.90
15872;DHT22;8035;51.962;7.162;2023-07-31T06:41:11;16.20;99.90
15872;DHT22;8035;51.962;7.162;2023-07-31T06:43:37;16.10;99.90
15872;DHT22;8035;51.962;7.162;2023-07-31T06:46:06;16.10;99.90
15872;DHT22;8035;51.962;7.162;2023-07-31T06:48:33;16.10;99.90
15872;DHT22;8035;51.962;7.162;2023-07-31T06:50:58;16.00;99.90
15872;DHT22;8035;51.962;7.162;2023-07-31T06:53:24;16.00;99.90
15872;DHT22;8035;51.962;7.162;2023-07-31T06:55:49;16.00;99.90
15872;DHT22;8035;51.962;7.162;2023-07-31T06:58:17;15.90;99.90
15872;DHT22;8035;51.962;7.162;2023-07-31T07:00:42;15.90;99.90
15872;DHT22;8035;51.962;7.162;2023-07-31T07:03:08;15.90;99.90
15872;DHT22;8035;51.962;7.162;2023-07-31T07:05:33;15.90;99.90
15872;DHT22;8035;51.962;7.162;2023-07-31T07:07:59;15.90;99.90
15872;DHT22;8035;51.962;7.162;2023-07-31T07:10:25;15.90;99.90
15872;DHT22;8035;51.962;7.162;2023-07-31T07:12:50;15.90;99.90
15872;DHT22;8035;51.962;7.162;2023-07-31T07:15:16;15.90;99.90
15872;DHT22;8035;51.962;7.162;2023-07-31T07:17:41;16.00;99.90
15872;DHT22;8035;51.962;7.162;2023-07-31T07:20:08;16.00;99.90
15872;DHT22;8035;51.962;7.162;2023-07-31T07:22:33;16.00;99.90
15872;DHT22;8035;51.962;7.162;2023-07-31T07:24:59;16.00;99.90
15872;DHT22;8035;51.962;7.162;2023-07-31T07:27:24;16.00;99.90
15872;DHT22;8035;51.962;7.162;2023-07-31T07:29:51;16.00;99.90
15872;DHT22;8035;51.962;7.162;2023-07-31T07:32:18;16.00;99.90
15872;DHT22;8035;51.962;7.162;2023-07-31T07:34:44;16.00;99.90
15872;DHT22;8035;51.962;7.162;2023-07-31T07:37:09;16.00;99.90
15872;DHT22;8035;51.962;7.162;2023-07-31T07:39:35;16.00;99.90
15872;DHT22;8035;51.962;7.162;2023-07-31T07:42:00;16.00;99.90
15872;DHT22;8035;51.962;7.162;2023-07-31T07:44:26;16.10;99.90
15872;DHT22;8035;51.962;7.162;2023-07-31T07:46:52;16.10;99.90
15872;DHT22;8035;51.962;7.162;2023-07-31T07:49:17;16.20;99.90
15872;DHT22;8035;51.962;7.162;2023-07-31T07:51:43;16.20;99.90
15872;DHT22;8035;51.962;7.162;2023-07-31T07:54:09;16.30;99.90
15872;DHT22;8035;51.962;7.162;2023-07-31T07:56:34;16.30;99.90
15872;DHT22;8035;51.962;7.162;2023-07-31T07:59:01;16.30;99.90
15872;DHT22;8035;51.962;7.162;2023-07-31T08:01:27;16.30;99.90
15872;DHT22;8035;51.962;7.162;2023-07-31T08:03:52;16.30;99.90
15872;DHT22;8035;51.962;7.162;2023-07-31T08:06:18;16.30;99.90
15872;DHT22;8035;51.962;7.162;2023-07-31T08:08:44;16.30;99.90
15872;DHT22;8035;51.962;7.162;2023-07-31T08:11:09;16.40;99.90
15872;DHT22;8035;51.962;7.162;2023-07-31T08:13:35;16.40;99.90
15872;DHT22;8035;51.962;7.162;2023-07-31T08:16:03;16.40;99.90
15872;DHT22;8035;51.962;7.162;2023-07-31T08:18:28;16.40;99.90
15872;DHT22;8035;51.962;7.162;2023-07-31T08:20:54;16.40;99.90
15872;DHT22;8035;51.962;7.162;2023-07-31T08:23:19;16.50;99.90
15872;DHT22;8035;51.962;7.162;2023-07-31T08:25:45;16.50;99.90
15872;DHT22;8035;51.962;7.162;2023-07-31T08:28:11;16.50;99.90
15872;DHT22;8035;51.962;7.162;2023-07-31T08:30:37;16.50;99.90
15872;DHT22;8035;51.962;7.162;2023-07-31T08:33:02;16.60;99.90
15872;DHT22;8035;51.962;7.162;2023-07-31T08:35:28;16.60;99.90
15872;DHT22;8035;51.962;7.162;2023-07-31T08:37:54;16.60;99.90
15872;DHT22;8035;51.962;7.162;2023-07-31T08:40:20;16.60;99.90
15872;DHT22;8035;51.962;7.162;2023-07-31T08:42:48;16.60;99.90
15872;DHT22;8035;51.962;7.162;2023-07-31T08:45:16;16.70;99.90
15872;DHT22;8035;51.962;7.162;2023-07-31T08:47:47;16.70;99.90
15872;DHT22;8035;51.962;7.162;2023-07-31T08:50:15;16.60;99.90
15872;DHT22;8035;51.962;7.162;2023-07-31T08:52:40;16.60;99.90
15872;DHT22;8035;51.962;7.162;2023-07-31T08:55:07;16.70;99.90
15872;DHT22;8035;51.962;7.162;2023-07-31T08:57:35;16.70;99.90
15872;DHT22;8035;51.962;7.162;2023-07-31T09:00:05;16.70;99.90
15872;DHT22;8035;51.962;7.162;2023-07-31T09:02:46;16.60;99.90
15872;DHT22;8035;51.962;7.162;2023-07-31T09:05:12;16.60;99.90
15872;DHT22;8035;51.962;7.162;2023-07-31T09:07:38;16.60;99.90
15872;DHT22;8035;51.962;7.162;2023-07-31T09:10:05;16.50;99.90
15872;DHT22;8035;51.962;7.162;2023-07-31T09:12:31;16.50;99.90
15872;DHT22;8035;51.962;7.162;2023-07-31T09:14:57;16.60;99.90
15872;DHT22;8035;51.962;7.162;2023-07-31T09:17:30;16.60;99.90
15872;DHT22;8035;51.962;7.162;2023-07-31T09:19:56;16.60;99.90
15872;DHT22;8035;51.962;7.162;2023-07-31T09:22:35;16.60;99.90
15872;DHT22;8035;51.962;7.162;2023-07-31T09:25:25;16.50;99.90
15872;DHT22;8035;51.962;7.162;2023-07-31T09:30:20;16.60;99.90
15872;DHT22;8035;51.962;7.162;2023-07-31T09:32:48;16.60;99.90
15872;DHT22;8035;51.962;7.162;2023-07-31T09:35:27;16.60;99.90
15872;DHT22;8035;51.962;7.162;2023-07-31T09:37:55;16.60;99.90
15872;DHT22;8035;51.962;7.162;2023-07-31T09:42:55;16.60;99.90
15872;DHT22;8035;51.962;7.162;2023-07-31T09:45:21;16.70;99.90
15872;DHT22;8035;51.962;7.162;2023-07-31T09:47:47;16.60;99.90
15872;DHT22;8035;51.962;7.162;2023-07-31T09:50:16;16.70;99.90
15872;DHT22;8035;51.962;7.162;2023-07-31T09:52:42;16.70;99.90
15872;DHT22;8035;51.962;7.162;2023-07-31T09:55:09;16.70;99.90
15872;DHT22;8035;51.962;7.162;2023-07-31T09:57:38;16.70;99.90
15872;DHT22;8035;51.962;7.162;2023-07-31T10:00:05;16.60;99.90
15872;DHT22;8035;51.962;7.162;2023-07-31T10:02:32;16.70;99.90
15872;DHT22;8035;51.962;7.162;2023-07-31T10:04:59;16.70;99.90
15872;DHT22;8035;51.962;7.162;2023-07-31T10:07:27;16.70;99.90
15872;DHT22;8035;51.962;7.162;2023-07-31T10:09:59;16.80;99.90
15872;DHT22;8035;51.962;7.162;2023-07-31T10:12:26;16.80;99.90
15872;DHT22;8035;51.962;7.162;2023-07-31T10:14:56;16.80;99.90
15872;DHT22;8035;51.962;7.162;2023-07-31T10:17:23;16.90;99.90
15872;DHT22;8035;51.962;7.162;2023-07-31T10:19:49;16.80;99.90
15872;DHT22;8035;51.962;7.162;2023-07-31T10:22:16;16.90;99.90
15872;DHT22;8035;51.962;7.162;2023-07-31T10:24:48;16.90;99.90
15872;DHT22;8035;51.962;7.162;2023-07-31T10:27:14;16.90;99.90
15872;DHT22;8035;51.962;7.162;2023-07-31T10:29:41;16.90;99.90
15872;DHT22;8035;51.962;7.162;2023-07-31T10:32:09;16.90;99.90
15872;DHT22;8035;51.962;7.162;2023-07-31T10:34:39;16.90;99.90
15872;DHT22;8035;51.962;7.162;2023-07-31T10:37:25;16.90;99.90
15872;DHT22;8035;51.962;7.162;2023-07-31T10:40:04;16.90;99.90
15872;DHT22;8035;51.962;7.162;2023-07-31T10:42:30;16.90;99.90
15872;DHT22;8035;51.962;7.162;2023-07-31T10:45:01;16.90;99.90
15872;DHT22;8035;51.962;7.162;2023-07-31T10:47:27;17.00;99.90
15872;DHT22;8035;51.962;7.162;2023-07-31T10:50:20;17.00;99.90
15872;DHT22;8035;51.962;7.162;2023-07-31T10:52:51;16.90;99.90
15872;DHT22;8035;51.962;7.162;2023-07-31T10:57:56;16.90;99.90
15872;DHT22;8035;51.962;7.162;2023-07-31T11:00:27;16.90;99.90
15872;DHT22;8035;51.962;7.162;2023-07-31T11:05:41;16.90;99.90
15872;DHT22;8035;51.962;7.162;2023-07-31T11:08:14;16.90;99.90
15872;DHT22;8035;51.962;7.162;2023-07-31T11:10:39;16.90;99.90
15872;DHT22;8035;51.962;7.162;2023-07-31T11:13:06;16.90;99.90
15872;DHT22;8035;51.962;7.162;2023-07-31T11:15:32;16.90;99.90
15872;DHT22;8035;51.962;7.162;2023-07-31T11:17:57;16.90;99.90
15872;DHT22;8035;51.962;7.162;2023-07-31T11:20:25;17.00;99.90
15872;DHT22;8035;51.962;7.162;2023-07-31T11:22:50;16.90;99.90
15872;DHT22;8035;51.962;7.162;2023-07-31T11:25:16;16.90;99.90
15872;DHT22;8035;51.962;7.162;2023-07-31T11:27:43;16.90;99.90
15872;DHT22;8035;51.962;7.162;2023-07-31T11:30:09;16.90;99.90
15872;DHT22;8035;51.962;7.162;2023-07-31T11:32:38;16.90;99.90
15872;DHT22;8035;51.962;7.162;2023-07-31T11:35:04;17.00;99.90
15872;DHT22;8035;51.962;7.162;2023-07-31T11:37:44;17.00;99.90
15872;DHT22;8035;51.962;7.162;2023-07-31T11:40:11;17.00;99.90
15872;DHT22;8035;51.962;7.162;2023-07-31T11:42:37;17.00;99.90
15872;DHT22;8035;51.962;7.162;2023-07-31T11:45:09;17.00;99.90
15872;DHT22;8035;51.962;7.162;2023-07-31T11:47:36;17.10;99.90
15872;DHT22;8035;51.962;7.162;2023-07-31T11:50:03;17.10;99.90
15872;DHT22;8035;51.962;7.162;2023-07-31T11:52:40;17.20;99.90
15872;DHT22;8035;51.962;7.162;2023-07-31T11:55:08;17.30;99.90
15872;DHT22;8035;51.962;7.162;2023-07-31T11:57:37;17.40;99.90
15872;DHT22;8035;51.962;7.162;2023-07-31T12:00:03;17.60;99.90
15872;DHT22;8035;51.962;7.162;2023-07-31T12:02:29;17.70;99.90
15872;DHT22;8035;51.962;7.162;2023-07-31T12:04:55;17.80;99.90
15872;DHT22;8035;51.962;7.162;2023-07-31T12:07:21;17.80;99.90
15872;DHT22;8035;51.962;7.162;2023-07-31T12:09:56;17.80;99.90
15872;DHT22;8035;51.962;7.162;2023-07-31T12:12:23;17.80;99.90
15872;DHT22;8035;51.962;7.162;2023-07-31T12:14:48;17.80;99.90
15872;DHT22;8035;51.962;7.162;2023-07-31T12:17:16;17.80;99.90
15872;DHT22;8035;51.962;7.162;2023-07-31T12:19:42;17.70;99.90
15872;DHT22;8035;51.962;7.162;2023-07-31T12:22:15;17.70;99.90
15872;DHT22;8035;51.962;7.162;2023-07-31T12:24:42;17.70;99.90
15872;DHT22;8035;51.962;7.162;2023-07-31T12:27:11;17.70;99.90
15872;DHT22;8035;51.962;7.162;2023-07-31T12:29:38;17.70;99.90
15872;DHT22;8035;51.962;7.162;2023-07-31T12:32:17;17.70;99.90
15872;DHT22;8035;51.962;7.162;2023-07-31T12:34:43;17.70;99.90
15872;DHT22;8035;51.962;7.162;2023-07-31T12:37:09;17.70;99.90
15872;DHT22;8035;51.962;7.162;2023-07-31T12:39:34;17.70;99.90
15872;DHT22;8035;51.962;7.162;2023-07-31T12:42:00;17.60;99.90
15872;DHT22;8035;51.962;7.162;2023-07-31T12:44:25;17.70;99.90
15872;DHT22;8035;51.962;7.162;2023-07-31T12:46:51;17.70;99.90
15872;DHT22;8035;51.962;7.162;2023-07-31T12:49:16;17.70;99.90
15872;DHT22;8035;51.962;7.162;2023-07-31T12:51:42;17.70;99.90
15872;DHT22;8035;51.962;7.162;2023-07-31T12:54:08;17.70;99.90
15872;DHT22;8035;51.962;7.162;2023-07-31T12:56:33;17.70;99.90
15872;DHT22;8035;51.962;7.162;2023-07-31T12:58:59;17.60;99.90
15872;DHT22;8035;51.962;7.162;2023-07-31T13:01:25;17.60;99.90
15872;DHT22;8035;51.962;7.162;2023-07-31T13:03:50;17.60;99.90
15872;DHT22;8035;51.962;7.162;2023-07-31T13:06:16;17.60;99.90
15872;DHT22;8035;51.962;7.162;2023-07-31T13:08:41;17.50;99.90
15872;DHT22;8035;51.962;7.162;2023-07-31T13:11:07;17.50;99.90
15872;DHT22;8035;51.962;7.162;2023-07-31T13:13:32;17.60;99.90
15872;DHT22;8035;51.962;7.162;2023-07-31T13:15:58;17.70;99.90
15872;DHT22;8035;51.962;7.162;2023-07-31T13:18:23;17.80;99.90
15872;DHT22;8035;51.962;7.162;2023-07-31T13:20:49;17.80;99.90
15872;DHT22;8035;51.962;7.162;2023-07-31T13:23:14;17.90;99.90
15872;DHT22;8035;51.962;7.162;2023-07-31T13:25:40;18.00;99.90
15872;DHT22;8035;51.962;7.162;2023-07-31T13:28:06;18.10;99.90
15872;DHT22;8035;51.962;7.162;2023-07-31T13:30:31;18.20;99.90
15872;DHT22;8035;51.962;7.162;2023-07-31T13:32:57;18.30;99.90
15872;DHT22;8035;51.962;7.162;2023-07-31T13:35:22;18.30;99.90
15872;DHT22;8035;51.962;7.162;2023-07-31T13:37:48;18.40;99.90
15872;DHT22;8035;51.962;7.162;2023-07-31T13:40:13;18.40;99.90
15872;DHT22;8035;51.962;7.162;2023-07-31T13:42:39;18.40;99.90
15872;DHT22;8035;51.962;7.162;2023-07-31T13:45:05;18.40;99.90
15872;DHT22;8035;51.962;7.162;2023-07-31T13:47:30;18.40;99.90
15872;DHT22;8035;51.962;7.162;2023-07-31T13:49:57;18.40;99.90
15872;DHT22;8035;51.962;7.162;2023-07-31T13:52:22;18.40;99.90
15872;DHT22;8035;51.962;7.162;2023-07-31T13:54:48;18.40;99.90
15872;DHT22;8035;51.962;7.162;2023-07-31T13:57:14;18.50;99.90
15872;DHT22;8035;51.962;7.162;2023-07-31T13:59:39;18.50;99.90
15872;DHT22;8035;51.962;7.162;2023-07-31T14:02:05;18.50;99.90
15872;DHT22;8035;51.962;7.162;2023-07-31T14:04:31;18.50;99.90
15872;DHT22;8035;51.962;7.162;2023-07-31T14:06:56;18.50;99.90
15872;DHT22;8035;51.962;7.162;2023-07-31T14:09:22;18.40;99.90
15872;DHT22;8035;51.962;7.162;2023-07-31T14:11:47;18.40;99.90
15872;DHT22;8035;51.962;7.162;2023-07-31T14:14:13;18.30;99.90
15872;DHT22;8035;51.962;7.162;2023-07-31T14:16:39;18.30;99.90
15872;DHT22;8035;51.962;7.162;2023-07-31T14:19:04;18.30;99.90
15872;DHT22;8035;51.962;7.162;2023-07-31T14:21:30;18.30;99.90
15872;DHT22;8035;51.962;7.162;2023-07-31T14:23:56;18.30;99.90
15872;DHT22;8035;51.962;7.162;2023-07-31T14:26:21;18.30;99.90
15872;DHT22;8035;51.962;7.162;2023-07-31T14:28:47;18.30;99.90
15872;DHT22;8035;51.962;7.162;2023-07-31T14:31:13;18.30;99.90
15872;DHT22;8035;51.962;7.162;2023-07-31T14:33:38;18.30;99.90
15872;DHT22;8035;51.962;7.162;2023-07-31T14:36:04;18.20;99.90
15872;DHT22;8035;51.962;7.162;2023-07-31T14:38:30;18.10;99.90
15872;DHT22;8035;51.962;7.162;2023-07-31T14:40:56;18.10;99.90
15872;DHT22;8035;51.962;7.162;2023-07-31T14:43:21;18.00;99.90
15872;DHT22;8035;51.962;7.162;2023-07-31T14:45:47;18.00;99.90
15872;DHT22;8035;51.962;7.162;2023-07-31T14:48:13;18.00;99.90
15872;DHT22;8035;51.962;7.162;2023-07-31T14:50:39;18.00;99.90
15872;DHT22;8035;51.962;7.162;2023-07-31T14:53:04;18.00;99.90
15872;DHT22;8035;51.962;7.162;2023-07-31T14:55:30;18.00;99.90
15872;DHT22;8035;51.962;7.162;2023-07-31T14:57:55;18.00;99.90
15872;DHT22;8035;51.962;7.162;2023-07-31T15:00:21;18.00;99.90
15872;DHT22;8035;51.962;7.162;2023-07-31T15:02:47;18.00;99.90
15872;DHT22;8035;51.962;7.162;2023-07-31T15:05:12;18.00;99.90
15872;DHT22;8035;51.962;7.162;2023-07-31T15:07:38;18.00;99.90
15872;DHT22;8035;51.962;7.162;2023-07-31T15:10:04;18.10;99.90
15872;DHT22;8035;51.962;7.162;2023-07-31T15:12:30;18.00;99.90
15872;DHT22;8035;51.962;7.162;2023-07-31T15:14:56;18.00;99.90
15872;DHT22;8035;51.962;7.162;2023-07-31T15:17:22;18.00;99.90
15872;DHT22;8035;51.962;7.162;2023-07-31T15:19:48;17.90;99.90
15872;DHT22;8035;51.962;7.162;2023-07-31T15:22:13;17.90;99.90
15872;DHT22;8035;51.962;7.162;2023-07-31T15:24:39;17.90;99.90
15872;DHT22;8035;51.962;7.162;2023-07-31T15:27:05;17.90;99.90
15872;DHT22;8035;51.962;7.162;2023-07-31T15:29:30;17.90;99.90
15872;DHT22;8035;51.962;7.162;2023-07-31T15:31:56;18.00;99.90
15872;DHT22;8035;51.962;7.162;2023-07-31T15:34:22;18.00;99.90
15872;DHT22;8035;51.962;7.162;2023-07-31T15:36:48;18.10;99.90
15872;DHT22;8035;51.962;7.162;2023-07-31T15:39:13;18.10;99.90
15872;DHT22;8035;51.962;7.162;2023-07-31T15:41:41;18.10;99.90
15872;DHT22;8035;51.962;7.162;2023-07-31T15:44:07;18.10;99.90
15872;DHT22;8035;51.962;7.162;2023-07-31T15:46:33;18.10;99.90
15872;DHT22;8035;51.962;7.162;2023-07-31T15:48:59;18.00;99.90
15872;DHT22;8035;51.962;7.162;2023-07-31T15:51:24;17.90;99.90